Главная страница
METAR-TAF:

METAR-TAF

Аэропорты :

Мускока, Онтарио, Канада

широта: 44-58N, долгота: 079-18W, высота над уровнем моря: 280 м

Текущие метеонаблюдения

Эта сводка был подготовлена 48 минут назад, в 00:00 UTC
Ветер 5 Узел от юго-восточный
Температура 22°C
Влажность 73%
Давление 1018 hPa
Видимость: 14.5 км
ясное небо

METAR: CYQA 210000Z AUTO 14005KT 9SM CLR 22/17 A3005 RMK SLP176 DENSITY ALT 1700FT

Время: 20:48 (00:48 UTC)

Прогноз

Эта сводка был подготовлена 5 часа и 10 минут назад, в 19:38 UTC
Прогноз действительный с 20-го 20 UTC до 21-го 02 UTC
Ветер 8 Узел от юго-восточный
Видимость: 10 км
Рассеянная облачность на высоте 5000 фута
С 20-го 2300 UTC
Ветер 6 Узел от юго-восточный
Видимость: 10 км
Отдельные облака на высоте 5000 фута
изменения
С 21-го 00 UTC до 21-го 02 UTC
Ветер 3 Узел переменных направлений

TAF: CYQA 201938Z 2020/2102 14008KT P6SM BKN050 FM202300 14006KT P6SM SCT050 BECMG 2100/2102 VRB03KT RMK FCST BASED ON AUTO OBS. NXT FCST WILL BE ISSUED AT 211145Z

Метеонаблюдения и прогнозы для более 4000 аэропортов (сводки METAR и TAF).

Имеющиеся станции представлены на карте желтыми и красными точками.

Чтобы увидеть название станции, наведите на нее мышь.

Затем щелкните, чтобы увидеть метеонаблюдения и метеопрогнозы.

Управление картой: чтобы увеличить масштаб, щелкните зеленые кнопки с черным крестиком; чтобы уменьшить масштаб, щелкните зеленую кнопку с тире; для просмотра соседних карт щелкайте зеленые стрелки.


METAR-TAF: